Curtice, Ohio
Current Conditions -  °F | °C
As of 9:48 PM on Sunday 23 Nov 2014 (Local Time) from KTDZ Reporting Station
Light Rain Light Rain  
Wind Chill: 54°   Ceiling: 1400
Heat Index: 54°   Visibility: 8mi
Dew Point: 48°   Wind: 15mph
Humidity: 82%   Direction: 140°SE
Pressure: 29.37"   Gusts: NA
Location:  41.62°N, 83.37°W
Report Text: KTDZ 240248Z AUTO 14013KT 8SM -RA BKN014 OVC021 12/09 A2937 RMK AO2 PRESFR P0009 TSNO
Loading
Personal Weather Stations






























Interactive Weather Map New forecast layout! Learn more

10-Day Weather Forecast

Advertisements
Track Severe Weather on mobile